createdAt,value
2022-08-05T00:01:35.957Z,75.26
2022-08-05T00:04:15.086Z,75.26
2022-08-05T00:06:43.239Z,75.09
2022-08-05T00:09:13.190Z,75.02
2022-08-05T00:11:49.177Z,74.62
2022-08-05T00:14:17.336Z,75.47
2022-08-05T00:16:53.312Z,75.61
2022-08-05T00:19:24.970Z,75.69
2022-08-05T00:21:59.827Z,76.25
2022-08-05T00:24:30.630Z,76.12
2022-08-05T00:26:58.586Z,76.90
2022-08-05T00:29:26.056Z,77.17
2022-08-05T00:32:12.340Z,76.89
2022-08-05T00:34:55.130Z,76.79
2022-08-05T00:37:50.649Z,76.40
2022-08-05T00:40:17.749Z,76.42
2022-08-05T00:42:54.871Z,77.19
2022-08-05T00:45:28.210Z,77.40
2022-08-05T00:48:09.531Z,77.78
2022-08-05T00:50:38.547Z,77.35
2022-08-05T00:53:09.565Z,78.07
2022-08-05T00:55:43.761Z,77.29
2022-08-05T00:58:11.656Z,77.91
2022-08-05T01:00:39.857Z,77.98
2022-08-05T01:03:07.848Z,77.95
2022-08-05T01:05:35.181Z,77.41
2022-08-05T01:08:40.761Z,77.07
2022-08-05T01:10:54.054Z,77.29
2022-08-05T01:13:59.081Z,77.38
2022-08-05T01:16:52.175Z,77.73
2022-08-05T01:19:30.127Z,77.92
2022-08-05T01:22:53.920Z,77.97
2022-08-05T01:25:53.132Z,78.29
2022-08-05T01:28:20.176Z,78.26
2022-08-05T01:30:55.099Z,77.93
2022-08-05T01:33:26.252Z,77.44
2022-08-05T01:35:57.633Z,77.41
2022-08-05T01:38:29.273Z,77.17
2022-08-05T01:41:01.665Z,77.46
2022-08-05T01:43:30.326Z,78.24
2022-08-05T01:45:58.483Z,78.33
2022-08-05T01:48:36.745Z,77.95
2022-08-05T01:51:11.980Z,77.76
2022-08-05T01:53:54.734Z,78.12
2022-08-05T01:58:09.879Z,78.61
2022-08-05T01:59:16.977Z,79.58
2022-08-05T02:01:47.683Z,79.83
2022-08-05T02:04:18.575Z,79.91
2022-08-05T02:06:45.343Z,80.24
2022-08-05T02:09:16.417Z,79.96
2022-08-05T02:12:15.239Z,79.88
2022-08-05T02:14:54.610Z,80.38
2022-08-05T02:18:31.017Z,81.47
2022-08-05T02:20:30.558Z,82.48
2022-08-05T02:23:09.241Z,82.18
2022-08-05T02:25:49.839Z,81.70
2022-08-05T02:28:29.348Z,82.37
2022-08-05T02:31:13.858Z,82.43
2022-08-05T02:33:44.954Z,81.86
2022-08-05T02:36:19.131Z,82.11
2022-08-05T02:38:52.903Z,82.58
2022-08-05T02:41:22.779Z,83.18
2022-08-05T02:44:06.539Z,82.62
2022-08-05T02:46:59.752Z,82.23
2022-08-05T02:49:36.640Z,82.16
2022-08-05T02:52:09.330Z,82.20
2022-08-05T02:54:41.147Z,82.15
2022-08-05T02:58:10.936Z,81.76
2022-08-05T02:59:59.726Z,82.24
2022-08-05T03:02:35.604Z,81.49
2022-08-05T03:05:04.439Z,80.90
2022-08-05T03:08:00.344Z,80.27
2022-08-05T03:10:22.102Z,80.47
2022-08-05T03:12:53.796Z,81.38
2022-08-05T03:15:23.694Z,81.62
2022-08-05T03:17:54.101Z,81.88
2022-08-05T03:20:24.550Z,81.92
2022-08-05T03:22:52.495Z,81.96
2022-08-05T03:26:03.816Z,82.13
2022-08-05T03:28:10.716Z,82.04
2022-08-05T03:30:42.249Z,81.71
2022-08-05T03:33:09.473Z,81.97
2022-08-05T03:35:41.530Z,82.43
2022-08-05T03:38:11.541Z,82.53
2022-08-05T03:40:45.084Z,82.33
2022-08-05T03:43:58.634Z,82.48
2022-08-05T03:46:01.581Z,82.73
2022-08-05T03:48:29.614Z,82.71
2022-08-05T03:52:49.028Z,83.23
2022-08-05T03:55:34.603Z,83.55
2022-08-05T03:57:16.473Z,83.03
2022-08-05T03:59:55.773Z,82.84
2022-08-05T04:02:38.439Z,82.96
2022-08-05T04:05:13.001Z,82.75
2022-08-05T04:07:53.039Z,82.98
2022-08-05T04:10:35.801Z,82.64
2022-08-05T04:13:06.482Z,82.86
2022-08-05T04:15:36.096Z,82.64
2022-08-05T04:18:09.326Z,82.23
2022-08-05T04:20:37.275Z,81.65
2022-08-05T04:23:04.423Z,81.21
2022-08-05T04:25:56.456Z,80.75
2022-08-05T04:28:19.767Z,79.71
2022-08-05T04:30:49.336Z,79.55
2022-08-05T04:33:17.085Z,79.51
2022-08-05T04:36:11.128Z,79.12
2022-08-05T04:38:52.656Z,78.87
2022-08-05T04:41:19.347Z,80.00
2022-08-05T04:43:48.195Z,79.85
2022-08-05T04:46:28.129Z,80.21
2022-08-05T04:48:55.344Z,80.05
2022-08-05T04:51:25.584Z,79.94
2022-08-05T04:53:57.095Z,79.60
2022-08-05T04:56:35.129Z,79.13
2022-08-05T04:59:21.437Z,78.95
2022-08-05T05:02:35.503Z,78.61
2022-08-05T05:04:43.911Z,75.87
2022-08-05T05:07:17.118Z,74.69
2022-08-05T05:09:45.328Z,74.81
2022-08-05T05:12:12.231Z,75.46
2022-08-05T05:14:49.520Z,74.70
2022-08-05T05:17:23.283Z,73.00
2022-08-05T05:19:50.430Z,72.97
2022-08-05T05:22:24.646Z,72.51
2022-08-05T05:24:57.164Z,71.81
2022-08-05T05:27:45.950Z,71.83
2022-08-05T05:30:30.519Z,71.73
2022-08-05T05:33:09.015Z,71.37
2022-08-05T05:35:44.108Z,70.05
2022-08-05T05:38:13.242Z,68.88
2022-08-05T05:40:49.943Z,68.59
2022-08-05T05:43:27.711Z,68.81
2022-08-05T05:46:12.223Z,69.35
2022-08-05T05:48:44.267Z,66.79
2022-08-05T05:51:15.246Z,66.23
2022-08-05T05:53:46.084Z,66.64
2022-08-05T05:56:26.013Z,65.15
2022-08-05T05:59:03.403Z,66.62
2022-08-05T06:01:37.675Z,66.68
2022-08-05T06:04:14.547Z,65.20
2022-08-05T06:06:47.254Z,64.61
2022-08-05T06:09:17.452Z,62.46
2022-08-05T06:12:01.958Z,60.60
2022-08-05T06:14:33.414Z,61.69
2022-08-05T06:17:22.314Z,58.81
2022-08-05T06:19:56.882Z,59.01
2022-08-05T06:22:33.730Z,61.12
2022-08-05T06:25:01.561Z,58.95
2022-08-05T06:28:12.791Z,59.17
2022-08-05T06:30:34.907Z,56.53
2022-08-05T06:33:02.319Z,58.83
2022-08-05T06:36:07.576Z,54.86
2022-08-05T06:38:16.159Z,56.76
2022-08-05T06:40:44.512Z,53.32
2022-08-05T06:43:58.092Z,51.53
2022-08-05T06:46:06.945Z,50.03
2022-08-05T06:48:50.194Z,49.48
2022-08-05T06:51:23.763Z,49.07
2022-08-05T06:53:58.336Z,46.28
2022-08-05T06:56:26.760Z,46.78
2022-08-05T06:58:54.415Z,46.40
2022-08-05T07:01:23.365Z,46.63
2022-08-05T07:03:54.468Z,41.91
2022-08-05T07:06:21.284Z,42.39
2022-08-05T07:08:54.983Z,40.00
2022-08-05T07:11:25.379Z,39.40
2022-08-05T07:14:20.299Z,35.94
2022-08-05T07:18:00.457Z,35.18
2022-08-05T07:20:31.286Z,33.94
2022-08-05T07:22:33.696Z,33.81
2022-08-05T07:25:21.872Z,31.89
2022-08-05T07:27:58.558Z,31.83
2022-08-05T07:30:38.865Z,30.29
2022-08-05T07:33:09.234Z,28.71
2022-08-05T07:36:02.711Z,27.55
2022-08-05T07:38:33.491Z,27.32
2022-08-05T07:42:07.354Z,27.14
2022-08-05T07:43:56.570Z,25.22
2022-08-05T07:46:26.046Z,24.76
2022-08-05T07:49:01.516Z,25.06
2022-08-05T07:51:36.169Z,25.49
2022-08-05T07:54:08.401Z,24.22
2022-08-05T07:57:00.691Z,23.46
2022-08-05T07:59:31.358Z,25.51
2022-08-05T08:02:15.929Z,24.65
2022-08-05T08:04:48.187Z,23.09
2022-08-05T08:07:16.425Z,23.56
2022-08-05T08:09:45.741Z,22.56
2022-08-05T08:12:35.083Z,22.48
2022-08-05T08:15:03.345Z,21.46
2022-08-05T08:17:31.607Z,21.56
2022-08-05T08:20:44.495Z,21.74
2022-08-05T08:22:59.085Z,21.39
2022-08-05T08:26:00.520Z,22.21
2022-08-05T08:28:18.830Z,20.97
2022-08-05T08:31:02.831Z,20.12
2022-08-05T08:33:37.456Z,20.65
2022-08-05T08:36:38.670Z,20.67
2022-08-05T08:38:55.612Z,19.02
2022-08-05T08:41:26.298Z,19.34
2022-08-05T08:45:18.519Z,20.32
2022-08-05T08:46:58.192Z,19.16
2022-08-05T08:50:07.691Z,19.57
2022-08-05T08:52:23.799Z,19.18
2022-08-05T08:54:55.410Z,18.85
2022-08-05T08:57:24.966Z,18.33
2022-08-05T09:00:10.025Z,18.34
2022-08-05T09:02:37.382Z,18.21
2022-08-05T09:05:17.267Z,18.26
2022-08-05T09:07:57.527Z,17.33
2022-08-05T09:10:27.911Z,17.74
2022-08-05T09:12:57.238Z,16.63
2022-08-05T09:15:31.660Z,16.69
2022-08-05T09:18:03.699Z,16.92
2022-08-05T09:20:37.274Z,17.10
2022-08-05T09:23:19.666Z,16.26
2022-08-05T09:26:06.499Z,16.68
2022-08-05T09:28:35.062Z,15.92
2022-08-05T09:31:43.286Z,17.03
2022-08-05T09:34:06.312Z,16.25
2022-08-05T09:36:54.430Z,16.85
2022-08-05T09:39:39.551Z,15.92
2022-08-05T09:42:17.237Z,15.43
2022-08-05T09:44:56.093Z,15.87
2022-08-05T09:47:36.400Z,14.74
2022-08-05T09:50:18.234Z,15.41
2022-08-05T09:53:00.962Z,15.03
2022-08-05T09:55:56.288Z,14.96
2022-08-05T09:58:15.631Z,14.90
2022-08-05T10:01:14.601Z,15.67
2022-08-05T10:03:58.893Z,13.94
2022-08-05T10:06:28.237Z,14.72
2022-08-05T10:08:56.268Z,14.47
2022-08-05T10:11:23.666Z,14.45
2022-08-05T10:13:58.097Z,14.19
2022-08-05T10:16:37.890Z,14.64
2022-08-05T10:19:23.560Z,14.95
2022-08-05T10:22:07.840Z,15.01
2022-08-05T10:24:39.714Z,14.25
2022-08-05T10:27:07.585Z,15.16
2022-08-05T10:30:06.496Z,13.88
2022-08-05T10:33:01.801Z,13.90
2022-08-05T10:35:10.738Z,15.66
2022-08-05T10:37:44.907Z,14.36
2022-08-05T10:40:28.134Z,15.01
2022-08-05T10:43:01.456Z,14.07
2022-08-05T10:45:30.525Z,14.36
2022-08-05T10:48:36.220Z,14.87
2022-08-05T10:51:22.519Z,14.54
2022-08-05T10:54:02.075Z,13.69
2022-08-05T10:56:49.500Z,15.82
2022-08-05T11:00:02.766Z,14.20
2022-08-05T11:02:34.660Z,15.50
2022-08-05T11:05:04.470Z,14.08
2022-08-05T11:07:33.117Z,14.21
2022-08-05T11:10:27.377Z,14.09
2022-08-05T11:12:56.013Z,14.33
2022-08-05T11:16:00.408Z,14.30
2022-08-05T11:18:29.939Z,13.12
2022-08-05T11:20:57.192Z,12.39
2022-08-05T11:24:05.537Z,13.15
2022-08-05T11:26:28.627Z,12.61
2022-08-05T11:29:12.538Z,13.07
2022-08-05T11:31:56.486Z,13.46
2022-08-05T11:34:37.921Z,13.77
2022-08-05T11:37:06.218Z,13.67
2022-08-05T11:39:55.560Z,13.41
2022-08-05T11:42:28.279Z,12.16
2022-08-05T11:45:03.535Z,13.97
2022-08-05T11:47:49.253Z,13.33
2022-08-05T11:50:17.874Z,12.32
2022-08-05T11:52:46.173Z,12.99
2022-08-05T11:55:15.694Z,13.16
2022-08-05T11:58:10.760Z,12.77
2022-08-05T12:00:38.020Z,12.89
2022-08-05T12:03:29.630Z,13.21
2022-08-05T12:06:03.157Z,12.98
2022-08-05T12:08:50.979Z,12.42
2022-08-05T12:11:39.906Z,12.98
2022-08-05T12:14:08.585Z,12.07
2022-08-05T12:16:45.530Z,13.23
2022-08-05T12:20:25.581Z,12.64
2022-08-05T12:22:06.064Z,12.94
2022-08-05T12:24:40.510Z,12.69
2022-08-05T12:27:25.432Z,13.17
2022-08-05T12:30:15.399Z,13.55
2022-08-05T12:32:50.429Z,13.54
2022-08-05T12:35:21.573Z,13.14
2022-08-05T12:37:49.311Z,13.75
2022-08-05T12:40:26.863Z,14.51
2022-08-05T12:42:56.697Z,14.42
2022-08-05T12:45:23.608Z,13.25
2022-08-05T12:48:27.155Z,13.66
2022-08-05T12:52:12.472Z,12.66
2022-08-05T12:54:26.537Z,12.67
2022-08-05T12:56:59.360Z,12.84
2022-08-05T12:59:46.736Z,13.01
2022-08-05T13:02:20.068Z,13.42
2022-08-05T13:04:55.204Z,13.20
2022-08-05T13:07:55.783Z,13.53
2022-08-05T13:10:14.922Z,12.60
2022-08-05T13:12:57.460Z,11.72
2022-08-05T13:15:42.203Z,12.22
2022-08-05T13:18:20.112Z,12.54
2022-08-05T13:20:49.376Z,14.12
2022-08-05T13:23:22.162Z,14.00
2022-08-05T13:25:59.386Z,14.29
2022-08-05T13:28:28.812Z,13.66
2022-08-05T13:30:55.566Z,12.88
2022-08-05T13:34:22.502Z,12.89
2022-08-05T13:36:11.342Z,12.57
2022-08-05T13:38:42.749Z,12.84
2022-08-05T13:41:11.514Z,14.26
2022-08-05T13:43:44.822Z,13.65
2022-08-05T13:46:50.597Z,13.82
2022-08-05T13:49:10.253Z,14.00
2022-08-05T13:51:40.818Z,13.79
2022-08-05T13:54:12.442Z,14.34
2022-08-05T13:56:45.317Z,15.51
2022-08-05T13:59:24.767Z,17.05
2022-08-05T14:01:58.116Z,19.62
2022-08-05T14:04:49.803Z,19.34
2022-08-05T14:07:59.845Z,20.03
2022-08-05T14:10:18.835Z,21.60
2022-08-05T14:12:55.185Z,24.30
2022-08-05T14:16:05.573Z,27.58
2022-08-05T14:18:14.833Z,28.36
2022-08-05T14:20:47.324Z,30.75
2022-08-05T14:23:23.387Z,31.02
2022-08-05T14:25:59.059Z,31.27
2022-08-05T14:28:30.075Z,32.93
2022-08-05T14:30:58.118Z,32.59
2022-08-05T14:33:59.350Z,33.81
2022-08-05T14:36:25.346Z,34.41
2022-08-05T14:38:53.899Z,34.17
2022-08-05T14:41:21.243Z,35.32
2022-08-05T14:44:01.929Z,35.77
2022-08-05T14:46:35.516Z,35.59
2022-08-05T14:49:07.277Z,36.20
2022-08-05T14:51:38.883Z,35.85
2022-08-05T14:54:28.503Z,38.55
2022-08-05T14:56:57.531Z,37.10
2022-08-05T14:59:24.825Z,36.51
2022-08-05T15:01:54.902Z,38.88
2022-08-05T15:04:23.358Z,38.86
2022-08-05T15:06:55.549Z,37.32
2022-08-05T15:09:52.045Z,38.46
2022-08-05T15:12:11.660Z,37.73
2022-08-05T15:14:50.264Z,38.46
2022-08-05T15:17:47.373Z,39.09
2022-08-05T15:20:18.687Z,38.62
2022-08-05T15:22:54.258Z,39.16
2022-08-05T15:25:41.000Z,37.62
2022-08-05T15:28:15.810Z,38.86
2022-08-05T15:30:45.492Z,39.90
2022-08-05T15:34:19.099Z,39.67
2022-08-05T15:36:03.462Z,39.19
2022-08-05T15:38:36.156Z,38.65
2022-08-05T15:41:22.082Z,38.81
2022-08-05T15:43:50.712Z,38.43
2022-08-05T15:46:20.182Z,41.14
2022-08-05T15:48:51.980Z,40.94
2022-08-05T15:52:04.107Z,40.16
2022-08-05T15:54:15.955Z,40.57
2022-08-05T15:56:43.673Z,40.81
2022-08-05T15:59:19.825Z,40.35
2022-08-05T16:01:52.499Z,40.57
2022-08-05T16:04:21.250Z,40.83
2022-08-05T16:06:53.813Z,40.43
2022-08-05T16:09:22.388Z,41.19
2022-08-05T16:11:52.747Z,40.67
2022-08-05T16:14:20.162Z,40.37
2022-08-05T16:16:47.227Z,41.55
2022-08-05T16:19:19.003Z,41.28
2022-08-05T16:22:03.380Z,41.89
2022-08-05T16:24:39.801Z,43.60
2022-08-05T16:27:09.066Z,43.36
2022-08-05T16:29:37.062Z,44.46
2022-08-05T16:32:09.769Z,44.63
2022-08-05T16:34:37.297Z,45.88
2022-08-05T16:38:15.524Z,46.08
2022-08-05T16:40:06.627Z,46.21
2022-08-05T16:42:35.121Z,46.91
2022-08-05T16:46:02.857Z,47.79
2022-08-05T16:47:54.285Z,47.89
2022-08-05T16:50:24.167Z,48.52
2022-08-05T16:52:50.896Z,49.05
2022-08-05T16:55:19.721Z,50.06
2022-08-05T16:57:59.752Z,50.12
2022-08-05T17:00:34.713Z,50.69
2022-08-05T17:03:15.375Z,49.96
2022-08-05T17:05:51.793Z,50.75
2022-08-05T17:08:36.057Z,50.23
2022-08-05T17:11:12.533Z,50.48
2022-08-05T17:13:43.946Z,50.94
2022-08-05T17:16:30.087Z,51.37
2022-08-05T17:18:57.363Z,53.12
2022-08-05T17:21:24.091Z,52.99
2022-08-05T17:24:05.862Z,52.45
2022-08-05T17:26:39.309Z,53.06
2022-08-05T17:29:10.201Z,52.84
2022-08-05T17:31:57.201Z,52.68
2022-08-05T17:34:30.100Z,52.42
2022-08-05T17:36:59.598Z,52.65
2022-08-05T17:39:33.175Z,53.39
2022-08-05T17:42:18.521Z,53.94
2022-08-05T17:44:50.312Z,54.03
2022-08-05T17:47:21.965Z,55.24
2022-08-05T17:49:59.800Z,54.11
2022-08-05T17:52:30.007Z,54.25
2022-08-05T17:54:56.734Z,54.81
2022-08-05T17:57:23.411Z,54.50
2022-08-05T18:00:04.793Z,53.64
2022-08-05T18:02:33.375Z,51.57
2022-08-05T18:05:06.379Z,53.69
2022-08-05T18:07:41.293Z,54.55
2022-08-05T18:10:11.450Z,54.43
2022-08-05T18:12:40.755Z,54.83
2022-08-05T18:15:08.696Z,55.50
2022-08-05T18:18:01.459Z,56.31
2022-08-05T18:20:29.513Z,55.95
2022-08-05T18:23:11.288Z,55.75
2022-08-05T18:25:45.182Z,55.56
2022-08-05T18:28:16.144Z,56.04
2022-08-05T18:30:44.643Z,56.78
2022-08-05T18:33:13.626Z,56.83
2022-08-05T18:35:59.952Z,56.65
2022-08-05T18:38:28.946Z,55.52
2022-08-05T18:41:59.235Z,55.53
2022-08-05T18:43:43.220Z,54.71
2022-08-05T18:46:20.125Z,54.04
2022-08-05T18:48:53.650Z,54.22
2022-08-05T18:52:06.505Z,54.13
2022-08-05T18:54:30.173Z,54.15
2022-08-05T18:57:01.805Z,56.06
2022-08-05T18:59:42.694Z,55.55
2022-08-05T19:02:27.778Z,55.90
2022-08-05T19:05:02.965Z,60.17
2022-08-05T19:07:46.563Z,57.89
2022-08-05T19:10:18.718Z,57.16
2022-08-05T19:12:53.471Z,57.33
2022-08-05T19:15:45.065Z,58.32
2022-08-05T19:18:09.199Z,57.80
2022-08-05T19:20:41.585Z,57.31
2022-08-05T19:24:04.170Z,56.29
2022-08-05T19:26:01.163Z,57.62
2022-08-05T19:28:33.663Z,57.42
2022-08-05T19:31:01.108Z,58.50
2022-08-05T19:33:35.923Z,59.44
2022-08-05T19:36:07.289Z,58.89
2022-08-05T19:38:36.395Z,58.30
2022-08-05T19:41:07.080Z,58.63
2022-08-05T19:44:06.823Z,58.13
2022-08-05T19:46:30.244Z,56.77
2022-08-05T19:49:03.256Z,56.64
2022-08-05T19:52:05.522Z,57.83
2022-08-05T19:54:28.471Z,58.03
2022-08-05T19:57:06.638Z,58.02
2022-08-05T19:59:55.028Z,58.35
2022-08-05T20:02:24.263Z,58.34
2022-08-05T20:04:53.772Z,57.83
2022-08-05T20:07:46.188Z,57.80
2022-08-05T20:10:11.734Z,58.16
2022-08-05T20:12:48.111Z,58.44
2022-08-05T20:15:47.983Z,58.73
2022-08-05T20:18:09.626Z,59.66
2022-08-05T20:20:47.055Z,59.10
2022-08-05T20:23:14.188Z,60.45
2022-08-05T20:25:41.827Z,59.98
2022-08-05T20:28:13.576Z,60.23
2022-08-05T20:30:41.738Z,60.49
2022-08-05T20:33:08.834Z,61.08
2022-08-05T20:35:40.678Z,61.17
2022-08-05T20:38:20.268Z,62.23
2022-08-05T20:40:56.301Z,63.31
2022-08-05T20:43:33.329Z,63.88
2022-08-05T20:46:18.214Z,64.80
2022-08-05T20:48:45.488Z,64.34
2022-08-05T20:51:17.947Z,64.03
2022-08-05T20:53:55.149Z,64.19
2022-08-05T20:56:29.867Z,64.41
2022-08-05T20:58:59.972Z,65.56
2022-08-05T21:01:40.791Z,65.28
2022-08-05T21:04:09.904Z,66.73
2022-08-05T21:06:37.911Z,65.92
2022-08-05T21:09:12.150Z,65.43
2022-08-05T21:12:09.615Z,64.98
2022-08-05T21:14:28.809Z,64.46
2022-08-05T21:17:01.398Z,64.42
2022-08-05T21:19:29.782Z,64.53
2022-08-05T21:22:14.924Z,65.63
2022-08-05T21:24:44.512Z,67.11
2022-08-05T21:27:16.259Z,68.44
2022-08-05T21:29:43.351Z,69.83
2022-08-05T21:32:26.739Z,68.75
2022-08-05T21:35:17.746Z,68.54
2022-08-05T21:37:47.050Z,67.84
2022-08-05T21:40:14.449Z,68.47
2022-08-05T21:42:45.179Z,67.49
2022-08-05T21:45:25.071Z,66.87
2022-08-05T21:48:06.269Z,67.07
2022-08-05T21:50:33.473Z,66.94
2022-08-05T21:53:04.428Z,66.77
2022-08-05T21:56:04.220Z,67.73
2022-08-05T21:58:24.867Z,67.99
2022-08-05T22:00:58.723Z,69.15
2022-08-05T22:03:51.773Z,70.54
2022-08-05T22:06:12.207Z,69.86
2022-08-05T22:08:42.378Z,70.69
2022-08-05T22:11:15.386Z,70.43
2022-08-05T22:14:31.257Z,71.26
2022-08-05T22:16:51.314Z,70.45
2022-08-05T22:19:56.087Z,69.47
2022-08-05T22:22:03.688Z,69.09
2022-08-05T22:24:51.708Z,68.99
2022-08-05T22:28:08.470Z,69.42
2022-08-05T22:30:24.509Z,69.32
2022-08-05T22:32:51.159Z,69.32
2022-08-05T22:35:22.390Z,69.85
2022-08-05T22:37:58.672Z,70.46
2022-08-05T22:40:27.122Z,71.08
2022-08-05T22:42:57.901Z,71.35
2022-08-05T22:45:26.527Z,71.44
2022-08-05T22:47:57.224Z,72.01
2022-08-05T22:50:26.718Z,71.74
2022-08-05T22:52:55.429Z,71.30
2022-08-05T22:55:23.640Z,71.44
2022-08-05T22:57:51.767Z,72.22
2022-08-05T23:00:20.602Z,72.33
2022-08-05T23:02:48.602Z,71.61
2022-08-05T23:05:15.871Z,71.94
2022-08-05T23:07:48.550Z,72.08
2022-08-05T23:10:20.298Z,72.32
2022-08-05T23:12:51.548Z,72.87
2022-08-05T23:15:22.594Z,73.01
2022-08-05T23:18:01.700Z,73.14
2022-08-05T23:20:30.765Z,72.91
2022-08-05T23:22:58.750Z,72.90
2022-08-05T23:25:51.328Z,73.02
2022-08-05T23:28:12.999Z,72.41
2022-08-05T23:30:43.563Z,72.54
2022-08-05T23:33:22.026Z,72.42
2022-08-05T23:35:56.150Z,72.40
2022-08-05T23:38:26.057Z,72.24
2022-08-05T23:40:53.838Z,72.70
2022-08-05T23:43:25.731Z,72.75
2022-08-05T23:46:17.618Z,72.22
2022-08-05T23:49:00.235Z,71.80
2022-08-05T23:51:53.733Z,71.97
2022-08-05T23:54:33.989Z,72.43
2022-08-05T23:57:05.146Z,72.76
